JTR weather

Santorini Airport
Santorini Island, Cyclades, Greece

Public forecast

Using degrees Celsius for public forecast. Weather courtesy of forecast.io.

Current aviation weather report (METAR) for Santorini Airport

Report is more than 6 hours old.

Retrieved 2020/04/07 17:50 UTC (11 hours ago):

LGSR 071750Z 34020KT 9999 BKN025 14/10 Q1017 RMK HAND WIND ANEMOMETER OBSERVATION SCT080 BLU

Aviation forecast (TAF) for Santorini Airport

Retrieved 2020-04-08 00:12 UTC (5 hours ago):

TAF LGSR 072300Z 0800/0824 35020G30KT 9999 FEW010 BKN025 PROB30 TEMPO 0801/0809 5000 RA SCT015 BKN020